sensor_id;sensor_type;location;lat;lon;timestamp;temperature;humidity
5346;DHT22;2695;49.444;11.054;2023-07-29T00:00:54;18.50;99.90
5346;DHT22;2695;49.444;11.054;2023-07-29T00:03:25;18.50;99.90
5346;DHT22;2695;49.444;11.054;2023-07-29T00:05:53;18.50;99.90
5346;DHT22;2695;49.444;11.054;2023-07-29T00:08:21;18.50;99.90
5346;DHT22;2695;49.444;11.054;2023-07-29T00:10:49;18.40;99.90
5346;DHT22;2695;49.444;11.054;2023-07-29T00:13:17;18.40;99.90
5346;DHT22;2695;49.444;11.054;2023-07-29T00:15:48;18.40;99.90
5346;DHT22;2695;49.444;11.054;2023-07-29T00:18:17;18.40;99.90
5346;DHT22;2695;49.444;11.054;2023-07-29T00:20:45;18.30;99.90
5346;DHT22;2695;49.444;11.054;2023-07-29T00:23:13;18.40;99.90
5346;DHT22;2695;49.444;11.054;2023-07-29T00:25:43;18.40;99.90
5346;DHT22;2695;49.444;11.054;2023-07-29T00:28:11;18.30;99.90
5346;DHT22;2695;49.444;11.054;2023-07-29T00:30:39;18.30;99.90
5346;DHT22;2695;49.444;11.054;2023-07-29T00:33:07;18.30;99.90
5346;DHT22;2695;49.444;11.054;2023-07-29T00:35:37;18.30;99.90
5346;DHT22;2695;49.444;11.054;2023-07-29T00:38:04;18.30;99.90
5346;DHT22;2695;49.444;11.054;2023-07-29T00:40:35;18.30;99.90
5346;DHT22;2695;49.444;11.054;2023-07-29T00:43:03;18.30;99.90
5346;DHT22;2695;49.444;11.054;2023-07-29T00:45:32;18.30;99.90
5346;DHT22;2695;49.444;11.054;2023-07-29T00:48:01;18.40;99.90
5346;DHT22;2695;49.444;11.054;2023-07-29T00:50:31;18.30;99.90
5346;DHT22;2695;49.444;11.054;2023-07-29T00:53:01;18.30;99.90
5346;DHT22;2695;49.444;11.054;2023-07-29T00:55:29;18.30;99.90
5346;DHT22;2695;49.444;11.054;2023-07-29T00:57:57;18.30;99.90
5346;DHT22;2695;49.444;11.054;2023-07-29T01:00:25;18.20;99.90
5346;DHT22;2695;49.444;11.054;2023-07-29T01:02:53;18.20;99.90
5346;DHT22;2695;49.444;11.054;2023-07-29T01:05:22;18.20;99.90
5346;DHT22;2695;49.444;11.054;2023-07-29T01:07:58;18.20;99.90
5346;DHT22;2695;49.444;11.054;2023-07-29T01:10:37;18.10;99.90
5346;DHT22;2695;49.444;11.054;2023-07-29T01:13:13;18.10;99.90
5346;DHT22;2695;49.444;11.054;2023-07-29T01:15:50;18.10;99.90
5346;DHT22;2695;49.444;11.054;2023-07-29T01:18:23;18.00;99.90
5346;DHT22;2695;49.444;11.054;2023-07-29T01:20:53;18.00;99.90
5346;DHT22;2695;49.444;11.054;2023-07-29T01:23:25;17.90;99.90
5346;DHT22;2695;49.444;11.054;2023-07-29T01:25:53;17.90;99.90
5346;DHT22;2695;49.444;11.054;2023-07-29T01:28:21;17.80;99.90
5346;DHT22;2695;49.444;11.054;2023-07-29T01:30:52;17.80;99.90
5346;DHT22;2695;49.444;11.054;2023-07-29T01:33:26;17.80;99.90
5346;DHT22;2695;49.444;11.054;2023-07-29T01:35:58;17.80;99.90
5346;DHT22;2695;49.444;11.054;2023-07-29T01:38:30;17.70;99.90
5346;DHT22;2695;49.444;11.054;2023-07-29T01:41:02;17.70;99.90
5346;DHT22;2695;49.444;11.054;2023-07-29T01:43:30;17.70;99.90
5346;DHT22;2695;49.444;11.054;2023-07-29T01:45:58;17.70;99.90
5346;DHT22;2695;49.444;11.054;2023-07-29T01:48:27;17.70;99.90
5346;DHT22;2695;49.444;11.054;2023-07-29T01:50:57;17.60;99.90
5346;DHT22;2695;49.444;11.054;2023-07-29T01:53:25;17.60;99.90
5346;DHT22;2695;49.444;11.054;2023-07-29T01:55:54;17.60;99.90
5346;DHT22;2695;49.444;11.054;2023-07-29T01:58:23;17.60;99.90
5346;DHT22;2695;49.444;11.054;2023-07-29T02:00:51;17.60;99.90
5346;DHT22;2695;49.444;11.054;2023-07-29T02:03:19;17.60;99.90
5346;DHT22;2695;49.444;11.054;2023-07-29T02:05:47;17.60;99.90
5346;DHT22;2695;49.444;11.054;2023-07-29T02:08:15;17.60;99.90
5346;DHT22;2695;49.444;11.054;2023-07-29T02:10:43;17.60;99.90
5346;DHT22;2695;49.444;11.054;2023-07-29T02:13:13;17.50;99.90
5346;DHT22;2695;49.444;11.054;2023-07-29T02:15:41;17.50;99.90
5346;DHT22;2695;49.444;11.054;2023-07-29T02:18:10;17.50;99.90
5346;DHT22;2695;49.444;11.054;2023-07-29T02:20:38;17.50;99.90
5346;DHT22;2695;49.444;11.054;2023-07-29T02:23:06;17.50;99.90
5346;DHT22;2695;49.444;11.054;2023-07-29T02:25:35;17.40;99.90
5346;DHT22;2695;49.444;11.054;2023-07-29T02:28:03;17.60;99.90
5346;DHT22;2695;49.444;11.054;2023-07-29T02:30:32;17.40;99.90
5346;DHT22;2695;49.444;11.054;2023-07-29T02:33:00;17.40;99.90
5346;DHT22;2695;49.444;11.054;2023-07-29T02:35:29;17.30;99.90
5346;DHT22;2695;49.444;11.054;2023-07-29T02:37:56;17.40;99.90
5346;DHT22;2695;49.444;11.054;2023-07-29T02:40:24;17.30;99.90
5346;DHT22;2695;49.444;11.054;2023-07-29T02:42:53;17.30;99.90
5346;DHT22;2695;49.444;11.054;2023-07-29T02:45:21;17.30;99.90
5346;DHT22;2695;49.444;11.054;2023-07-29T02:47:50;17.30;99.90
5346;DHT22;2695;49.444;11.054;2023-07-29T02:50:19;17.30;99.90
5346;DHT22;2695;49.444;11.054;2023-07-29T02:52:47;17.30;99.90
5346;DHT22;2695;49.444;11.054;2023-07-29T02:55:17;17.30;99.90
5346;DHT22;2695;49.444;11.054;2023-07-29T02:57:45;17.20;99.90
5346;DHT22;2695;49.444;11.054;2023-07-29T03:00:13;17.20;99.90
5346;DHT22;2695;49.444;11.054;2023-07-29T03:02:42;17.20;99.90
5346;DHT22;2695;49.444;11.054;2023-07-29T03:05:11;17.30;99.90
5346;DHT22;2695;49.444;11.054;2023-07-29T03:07:39;17.20;99.90
5346;DHT22;2695;49.444;11.054;2023-07-29T03:10:08;17.20;99.90
5346;DHT22;2695;49.444;11.054;2023-07-29T03:12:37;17.30;99.90
5346;DHT22;2695;49.444;11.054;2023-07-29T03:15:06;17.20;99.90
5346;DHT22;2695;49.444;11.054;2023-07-29T03:17:34;17.20;99.90
5346;DHT22;2695;49.444;11.054;2023-07-29T03:20:03;17.20;99.90
5346;DHT22;2695;49.444;11.054;2023-07-29T03:22:33;17.10;99.90
5346;DHT22;2695;49.444;11.054;2023-07-29T03:25:01;17.10;99.90
5346;DHT22;2695;49.444;11.054;2023-07-29T03:27:29;17.10;99.90
5346;DHT22;2695;49.444;11.054;2023-07-29T03:29:59;17.10;99.90
5346;DHT22;2695;49.444;11.054;2023-07-29T03:32:27;17.10;99.90
5346;DHT22;2695;49.444;11.054;2023-07-29T03:34:56;17.00;99.90
5346;DHT22;2695;49.444;11.054;2023-07-29T03:37:24;17.00;99.90
5346;DHT22;2695;49.444;11.054;2023-07-29T03:39:53;17.00;99.90
5346;DHT22;2695;49.444;11.054;2023-07-29T03:42:22;17.10;99.90
5346;DHT22;2695;49.444;11.054;2023-07-29T03:44:50;17.20;99.90
5346;DHT22;2695;49.444;11.054;2023-07-29T03:47:18;17.20;99.90
5346;DHT22;2695;49.444;11.054;2023-07-29T03:49:46;17.30;99.90
5346;DHT22;2695;49.444;11.054;2023-07-29T03:52:14;17.30;99.90
5346;DHT22;2695;49.444;11.054;2023-07-29T03:54:42;17.30;99.90
5346;DHT22;2695;49.444;11.054;2023-07-29T03:57:11;17.40;99.90
5346;DHT22;2695;49.444;11.054;2023-07-29T03:59:39;17.40;99.90
5346;DHT22;2695;49.444;11.054;2023-07-29T04:02:07;17.50;99.90
5346;DHT22;2695;49.444;11.054;2023-07-29T04:04:36;17.60;99.90
5346;DHT22;2695;49.444;11.054;2023-07-29T04:07:05;17.80;99.90
5346;DHT22;2695;49.444;11.054;2023-07-29T04:09:33;18.10;99.90
5346;DHT22;2695;49.444;11.054;2023-07-29T04:12:02;18.30;99.90
5346;DHT22;2695;49.444;11.054;2023-07-29T04:14:32;18.80;99.90
5346;DHT22;2695;49.444;11.054;2023-07-29T04:17:00;19.40;99.90
5346;DHT22;2695;49.444;11.054;2023-07-29T04:19:28;20.10;99.90
5346;DHT22;2695;49.444;11.054;2023-07-29T04:21:56;20.60;99.90
5346;DHT22;2695;49.444;11.054;2023-07-29T04:24:24;21.30;99.90
5346;DHT22;2695;49.444;11.054;2023-07-29T04:26:52;21.90;99.90
5346;DHT22;2695;49.444;11.054;2023-07-29T04:29:20;22.30;99.90
5346;DHT22;2695;49.444;11.054;2023-07-29T04:31:50;22.70;99.90
5346;DHT22;2695;49.444;11.054;2023-07-29T04:34:19;23.10;99.90
5346;DHT22;2695;49.444;11.054;2023-07-29T04:36:48;23.50;99.90
5346;DHT22;2695;49.444;11.054;2023-07-29T04:39:16;24.00;99.90
5346;DHT22;2695;49.444;11.054;2023-07-29T04:41:45;24.20;99.90
5346;DHT22;2695;49.444;11.054;2023-07-29T04:44:13;24.40;99.90
5346;DHT22;2695;49.444;11.054;2023-07-29T04:46:41;24.60;99.90
5346;DHT22;2695;49.444;11.054;2023-07-29T04:49:10;25.40;99.90
5346;DHT22;2695;49.444;11.054;2023-07-29T04:51:38;25.90;99.90
5346;DHT22;2695;49.444;11.054;2023-07-29T04:54:06;26.50;99.90
5346;DHT22;2695;49.444;11.054;2023-07-29T04:56:34;27.10;99.90
5346;DHT22;2695;49.444;11.054;2023-07-29T04:59:03;27.40;99.90
5346;DHT22;2695;49.444;11.054;2023-07-29T05:01:31;27.90;99.90
5346;DHT22;2695;49.444;11.054;2023-07-29T05:03:59;28.20;99.90
5346;DHT22;2695;49.444;11.054;2023-07-29T05:06:28;27.60;99.90
5346;DHT22;2695;49.444;11.054;2023-07-29T05:08:57;26.70;99.90
5346;DHT22;2695;49.444;11.054;2023-07-29T05:11:25;25.60;99.90
5346;DHT22;2695;49.444;11.054;2023-07-29T05:13:53;24.60;99.90
5346;DHT22;2695;49.444;11.054;2023-07-29T05:16:21;23.70;99.90
5346;DHT22;2695;49.444;11.054;2023-07-29T05:18:49;23.20;99.90
5346;DHT22;2695;49.444;11.054;2023-07-29T05:21:18;22.70;99.90
5346;DHT22;2695;49.444;11.054;2023-07-29T05:23:47;22.20;99.90
5346;DHT22;2695;49.444;11.054;2023-07-29T05:26:15;21.70;99.90
5346;DHT22;2695;49.444;11.054;2023-07-29T05:28:43;21.20;99.90
5346;DHT22;2695;49.444;11.054;2023-07-29T05:31:11;21.10;99.90
5346;DHT22;2695;49.444;11.054;2023-07-29T05:33:39;20.90;99.90
5346;DHT22;2695;49.444;11.054;2023-07-29T05:36:08;20.70;99.90
5346;DHT22;2695;49.444;11.054;2023-07-29T05:38:36;20.60;99.90
5346;DHT22;2695;49.444;11.054;2023-07-29T05:41:05;20.50;99.90
5346;DHT22;2695;49.444;11.054;2023-07-29T05:43:34;20.40;99.90
5346;DHT22;2695;49.444;11.054;2023-07-29T05:46:02;20.20;99.90
5346;DHT22;2695;49.444;11.054;2023-07-29T05:48:31;19.90;99.90
5346;DHT22;2695;49.444;11.054;2023-07-29T05:50:59;20.10;99.90
5346;DHT22;2695;49.444;11.054;2023-07-29T05:53:27;20.20;99.90
5346;DHT22;2695;49.444;11.054;2023-07-29T05:55:56;20.40;99.90
5346;DHT22;2695;49.444;11.054;2023-07-29T05:58:26;20.30;99.90
5346;DHT22;2695;49.444;11.054;2023-07-29T06:00:55;20.30;99.90
5346;DHT22;2695;49.444;11.054;2023-07-29T06:03:24;20.30;99.90
5346;DHT22;2695;49.444;11.054;2023-07-29T06:05:52;20.20;99.90
5346;DHT22;2695;49.444;11.054;2023-07-29T06:08:21;20.20;99.90
5346;DHT22;2695;49.444;11.054;2023-07-29T06:10:49;20.10;99.90
5346;DHT22;2695;49.444;11.054;2023-07-29T06:13:19;20.10;99.90
5346;DHT22;2695;49.444;11.054;2023-07-29T06:15:49;20.00;99.90
5346;DHT22;2695;49.444;11.054;2023-07-29T06:18:18;19.80;99.90
5346;DHT22;2695;49.444;11.054;2023-07-29T06:20:46;19.80;99.90
5346;DHT22;2695;49.444;11.054;2023-07-29T06:23:14;19.70;99.90
5346;DHT22;2695;49.444;11.054;2023-07-29T06:25:42;19.70;99.90
5346;DHT22;2695;49.444;11.054;2023-07-29T06:28:10;19.60;99.90
5346;DHT22;2695;49.444;11.054;2023-07-29T06:30:38;19.60;99.90
5346;DHT22;2695;49.444;11.054;2023-07-29T06:33:09;19.50;99.90
5346;DHT22;2695;49.444;11.054;2023-07-29T06:35:37;19.50;99.90
5346;DHT22;2695;49.444;11.054;2023-07-29T06:38:05;19.40;99.90
5346;DHT22;2695;49.444;11.054;2023-07-29T06:40:33;19.60;99.90
5346;DHT22;2695;49.444;11.054;2023-07-29T06:43:01;19.40;99.90
5346;DHT22;2695;49.444;11.054;2023-07-29T06:45:29;19.40;99.90
5346;DHT22;2695;49.444;11.054;2023-07-29T06:47:57;19.20;99.90
5346;DHT22;2695;49.444;11.054;2023-07-29T06:50:26;18.90;99.90
5346;DHT22;2695;49.444;11.054;2023-07-29T06:52:54;18.60;99.90
5346;DHT22;2695;49.444;11.054;2023-07-29T06:55:22;18.40;99.90
5346;DHT22;2695;49.444;11.054;2023-07-29T06:57:51;18.30;99.90
5346;DHT22;2695;49.444;11.054;2023-07-29T07:00:19;18.10;99.90
5346;DHT22;2695;49.444;11.054;2023-07-29T07:02:47;18.00;99.90
5346;DHT22;2695;49.444;11.054;2023-07-29T07:05:15;18.00;99.90
5346;DHT22;2695;49.444;11.054;2023-07-29T07:07:44;17.90;99.90
5346;DHT22;2695;49.444;11.054;2023-07-29T07:10:14;17.90;99.90
5346;DHT22;2695;49.444;11.054;2023-07-29T07:12:42;18.00;99.90
5346;DHT22;2695;49.444;11.054;2023-07-29T07:15:10;18.00;99.90
5346;DHT22;2695;49.444;11.054;2023-07-29T07:17:39;18.10;99.90
5346;DHT22;2695;49.444;11.054;2023-07-29T07:20:07;18.20;99.90
5346;DHT22;2695;49.444;11.054;2023-07-29T07:22:35;18.30;99.90
5346;DHT22;2695;49.444;11.054;2023-07-29T07:25:05;18.50;99.90
5346;DHT22;2695;49.444;11.054;2023-07-29T07:27:34;18.60;99.90
5346;DHT22;2695;49.444;11.054;2023-07-29T07:30:02;18.60;99.90
5346;DHT22;2695;49.444;11.054;2023-07-29T07:32:30;18.70;99.90
5346;DHT22;2695;49.444;11.054;2023-07-29T07:34:59;18.70;99.90
5346;DHT22;2695;49.444;11.054;2023-07-29T07:37:27;18.80;99.90
5346;DHT22;2695;49.444;11.054;2023-07-29T07:39:55;19.00;99.90
5346;DHT22;2695;49.444;11.054;2023-07-29T07:42:25;19.10;99.90
5346;DHT22;2695;49.444;11.054;2023-07-29T07:44:53;19.30;99.90
5346;DHT22;2695;49.444;11.054;2023-07-29T07:47:21;19.30;99.90
5346;DHT22;2695;49.444;11.054;2023-07-29T07:49:50;19.30;99.90
5346;DHT22;2695;49.444;11.054;2023-07-29T07:52:18;19.30;99.90
5346;DHT22;2695;49.444;11.054;2023-07-29T07:54:46;19.30;99.90
5346;DHT22;2695;49.444;11.054;2023-07-29T07:57:20;19.30;99.90
5346;DHT22;2695;49.444;11.054;2023-07-29T07:59:50;19.30;99.90
5346;DHT22;2695;49.444;11.054;2023-07-29T08:02:19;19.20;99.90
5346;DHT22;2695;49.444;11.054;2023-07-29T08:04:47;19.20;99.90
5346;DHT22;2695;49.444;11.054;2023-07-29T08:07:15;19.00;99.90
5346;DHT22;2695;49.444;11.054;2023-07-29T08:09:44;18.80;99.90
5346;DHT22;2695;49.444;11.054;2023-07-29T08:12:12;18.80;99.90
5346;DHT22;2695;49.444;11.054;2023-07-29T08:14:43;18.70;99.90
5346;DHT22;2695;49.444;11.054;2023-07-29T08:17:12;18.70;99.90
5346;DHT22;2695;49.444;11.054;2023-07-29T08:19:40;18.80;99.90
5346;DHT22;2695;49.444;11.054;2023-07-29T08:22:08;18.60;99.90
5346;DHT22;2695;49.444;11.054;2023-07-29T08:24:37;18.50;99.90
5346;DHT22;2695;49.444;11.054;2023-07-29T08:27:05;18.40;99.90
5346;DHT22;2695;49.444;11.054;2023-07-29T08:29:34;18.40;99.90
5346;DHT22;2695;49.444;11.054;2023-07-29T08:32:02;18.30;99.90
5346;DHT22;2695;49.444;11.054;2023-07-29T08:34:32;18.30;99.90
5346;DHT22;2695;49.444;11.054;2023-07-29T08:37:01;18.30;99.90
5346;DHT22;2695;49.444;11.054;2023-07-29T08:39:29;18.30;99.90
5346;DHT22;2695;49.444;11.054;2023-07-29T08:42:01;18.00;99.90
5346;DHT22;2695;49.444;11.054;2023-07-29T08:44:35;18.00;99.90
5346;DHT22;2695;49.444;11.054;2023-07-29T08:47:04;18.00;99.90
5346;DHT22;2695;49.444;11.054;2023-07-29T08:49:35;18.00;99.90
5346;DHT22;2695;49.444;11.054;2023-07-29T08:52:05;18.00;99.90
5346;DHT22;2695;49.444;11.054;2023-07-29T08:54:35;18.00;99.90
5346;DHT22;2695;49.444;11.054;2023-07-29T08:57:03;18.00;99.90
5346;DHT22;2695;49.444;11.054;2023-07-29T08:59:33;18.00;99.90
5346;DHT22;2695;49.444;11.054;2023-07-29T09:02:01;18.00;99.90
5346;DHT22;2695;49.444;11.054;2023-07-29T09:04:29;18.00;99.90
5346;DHT22;2695;49.444;11.054;2023-07-29T09:06:59;18.00;99.90
5346;DHT22;2695;49.444;11.054;2023-07-29T09:09:29;18.30;99.90
5346;DHT22;2695;49.444;11.054;2023-07-29T09:11:57;18.10;99.90
5346;DHT22;2695;49.444;11.054;2023-07-29T09:14:25;18.20;99.90
5346;DHT22;2695;49.444;11.054;2023-07-29T09:16:57;18.30;99.90
5346;DHT22;2695;49.444;11.054;2023-07-29T09:19:26;18.40;99.90
5346;DHT22;2695;49.444;11.054;2023-07-29T09:21:55;18.50;99.90
5346;DHT22;2695;49.444;11.054;2023-07-29T09:24:25;19.10;99.90
5346;DHT22;2695;49.444;11.054;2023-07-29T09:26:56;18.60;99.90
5346;DHT22;2695;49.444;11.054;2023-07-29T09:29:28;18.50;99.90
5346;DHT22;2695;49.444;11.054;2023-07-29T09:32:17;18.50;99.90
5346;DHT22;2695;49.444;11.054;2023-07-29T09:34:46;18.40;99.90
5346;DHT22;2695;49.444;11.054;2023-07-29T09:37:20;18.40;99.90
5346;DHT22;2695;49.444;11.054;2023-07-29T09:39:50;18.60;99.90
5346;DHT22;2695;49.444;11.054;2023-07-29T09:42:19;18.60;99.90
5346;DHT22;2695;49.444;11.054;2023-07-29T09:44:49;18.60;99.90
5346;DHT22;2695;49.444;11.054;2023-07-29T09:47:20;18.60;99.90
5346;DHT22;2695;49.444;11.054;2023-07-29T09:49:49;18.70;99.90
5346;DHT22;2695;49.444;11.054;2023-07-29T09:52:17;18.90;99.90
5346;DHT22;2695;49.444;11.054;2023-07-29T09:54:46;19.00;99.90
5346;DHT22;2695;49.444;11.054;2023-07-29T09:57:17;19.10;99.90
5346;DHT22;2695;49.444;11.054;2023-07-29T09:59:53;19.30;99.90
5346;DHT22;2695;49.444;11.054;2023-07-29T10:02:22;19.50;99.90
5346;DHT22;2695;49.444;11.054;2023-07-29T10:04:52;19.80;99.90
5346;DHT22;2695;49.444;11.054;2023-07-29T10:07:21;20.10;99.90
5346;DHT22;2695;49.444;11.054;2023-07-29T10:09:51;20.30;99.90
5346;DHT22;2695;49.444;11.054;2023-07-29T10:12:22;20.30;99.90
5346;DHT22;2695;49.444;11.054;2023-07-29T10:14:50;20.30;99.90
5346;DHT22;2695;49.444;11.054;2023-07-29T10:17:20;20.50;99.90
5346;DHT22;2695;49.444;11.054;2023-07-29T10:19:49;20.70;99.90
5346;DHT22;2695;49.444;11.054;2023-07-29T10:22:20;21.40;99.90
5346;DHT22;2695;49.444;11.054;2023-07-29T10:24:53;22.50;99.90
5346;DHT22;2695;49.444;11.054;2023-07-29T10:27:29;22.60;99.90
5346;DHT22;2695;49.444;11.054;2023-07-29T10:29:58;23.00;99.90
5346;DHT22;2695;49.444;11.054;2023-07-29T10:32:27;23.10;99.90
5346;DHT22;2695;49.444;11.054;2023-07-29T10:34:56;23.20;99.90
5346;DHT22;2695;49.444;11.054;2023-07-29T10:37:24;23.30;99.90
5346;DHT22;2695;49.444;11.054;2023-07-29T10:39:54;23.70;99.90
5346;DHT22;2695;49.444;11.054;2023-07-29T10:42:29;24.00;99.90
5346;DHT22;2695;49.444;11.054;2023-07-29T10:44:58;24.10;99.90
5346;DHT22;2695;49.444;11.054;2023-07-29T10:47:27;24.00;99.90
5346;DHT22;2695;49.444;11.054;2023-07-29T10:49:57;23.90;99.90
5346;DHT22;2695;49.444;11.054;2023-07-29T10:52:40;24.00;99.90
5346;DHT22;2695;49.444;11.054;2023-07-29T10:55:27;24.20;99.90
5346;DHT22;2695;49.444;11.054;2023-07-29T10:58:12;24.20;99.90
5346;DHT22;2695;49.444;11.054;2023-07-29T11:00:42;24.70;99.90
5346;DHT22;2695;49.444;11.054;2023-07-29T11:03:12;25.80;99.90
5346;DHT22;2695;49.444;11.054;2023-07-29T11:05:43;27.10;99.90
5346;DHT22;2695;49.444;11.054;2023-07-29T11:08:19;28.20;99.90
5346;DHT22;2695;49.444;11.054;2023-07-29T11:11:03;28.90;99.90
5346;DHT22;2695;49.444;11.054;2023-07-29T11:13:34;28.90;99.90
5346;DHT22;2695;49.444;11.054;2023-07-29T11:16:03;28.50;99.90
5346;DHT22;2695;49.444;11.054;2023-07-29T11:18:33;28.00;99.90
5346;DHT22;2695;49.444;11.054;2023-07-29T11:21:03;27.40;99.90
5346;DHT22;2695;49.444;11.054;2023-07-29T11:23:33;26.80;99.90
5346;DHT22;2695;49.444;11.054;2023-07-29T11:26:02;26.50;99.90
5346;DHT22;2695;49.444;11.054;2023-07-29T11:28:31;26.10;99.90
5346;DHT22;2695;49.444;11.054;2023-07-29T11:31:07;25.60;99.90
5346;DHT22;2695;49.444;11.054;2023-07-29T11:33:38;25.10;99.90
5346;DHT22;2695;49.444;11.054;2023-07-29T11:36:06;24.70;99.90
5346;DHT22;2695;49.444;11.054;2023-07-29T11:38:34;24.30;99.90
5346;DHT22;2695;49.444;11.054;2023-07-29T11:41:04;24.00;99.90
5346;DHT22;2695;49.444;11.054;2023-07-29T11:43:35;23.90;99.90
5346;DHT22;2695;49.444;11.054;2023-07-29T11:46:04;23.90;99.90
5346;DHT22;2695;49.444;11.054;2023-07-29T11:48:33;23.90;99.90
5346;DHT22;2695;49.444;11.054;2023-07-29T11:51:03;24.00;99.90
5346;DHT22;2695;49.444;11.054;2023-07-29T11:53:31;24.30;99.90
5346;DHT22;2695;49.444;11.054;2023-07-29T11:58:39;25.30;99.90
5346;DHT22;2695;49.444;11.054;2023-07-29T12:01:07;25.80;99.90
5346;DHT22;2695;49.444;11.054;2023-07-29T12:03:40;26.20;99.90
5346;DHT22;2695;49.444;11.054;2023-07-29T12:06:10;26.40;99.90
5346;DHT22;2695;49.444;11.054;2023-07-29T12:08:39;26.40;99.90
5346;DHT22;2695;49.444;11.054;2023-07-29T12:11:08;26.50;99.90
5346;DHT22;2695;49.444;11.054;2023-07-29T12:16:09;26.90;99.90
5346;DHT22;2695;49.444;11.054;2023-07-29T12:18:37;27.00;99.90
5346;DHT22;2695;49.444;11.054;2023-07-29T12:21:06;27.20;99.90
5346;DHT22;2695;49.444;11.054;2023-07-29T12:23:36;27.40;99.90
5346;DHT22;2695;49.444;11.054;2023-07-29T12:26:04;27.50;99.90
5346;DHT22;2695;49.444;11.054;2023-07-29T12:28:32;27.40;99.90
5346;DHT22;2695;49.444;11.054;2023-07-29T12:31:00;27.10;99.90
5346;DHT22;2695;49.444;11.054;2023-07-29T12:33:32;26.80;99.90
5346;DHT22;2695;49.444;11.054;2023-07-29T12:36:01;26.30;99.90
5346;DHT22;2695;49.444;11.054;2023-07-29T12:38:30;26.10;99.90
5346;DHT22;2695;49.444;11.054;2023-07-29T12:40:58;25.80;99.90
5346;DHT22;2695;49.444;11.054;2023-07-29T12:43:28;25.50;99.90
5346;DHT22;2695;49.444;11.054;2023-07-29T12:45:57;25.60;99.90
5346;DHT22;2695;49.444;11.054;2023-07-29T12:48:25;25.70;99.90
5346;DHT22;2695;49.444;11.054;2023-07-29T12:50:53;25.70;99.90
5346;DHT22;2695;49.444;11.054;2023-07-29T12:53:21;25.70;99.90
5346;DHT22;2695;49.444;11.054;2023-07-29T12:55:51;25.80;99.90
5346;DHT22;2695;49.444;11.054;2023-07-29T12:58:19;25.80;99.90
5346;DHT22;2695;49.444;11.054;2023-07-29T13:00:47;25.90;99.90
5346;DHT22;2695;49.444;11.054;2023-07-29T13:03:15;25.90;99.90
5346;DHT22;2695;49.444;11.054;2023-07-29T13:05:43;26.00;99.90
5346;DHT22;2695;49.444;11.054;2023-07-29T13:08:11;25.90;99.90
5346;DHT22;2695;49.444;11.054;2023-07-29T13:10:40;25.90;99.90
5346;DHT22;2695;49.444;11.054;2023-07-29T13:13:09;26.00;99.90
5346;DHT22;2695;49.444;11.054;2023-07-29T13:15:37;26.00;99.90
5346;DHT22;2695;49.444;11.054;2023-07-29T13:18:05;26.00;99.90
5346;DHT22;2695;49.444;11.054;2023-07-29T13:20:34;26.20;99.90
5346;DHT22;2695;49.444;11.054;2023-07-29T13:23:04;26.30;99.90
5346;DHT22;2695;49.444;11.054;2023-07-29T13:25:32;26.30;99.90
5346;DHT22;2695;49.444;11.054;2023-07-29T13:28:00;26.20;99.90
5346;DHT22;2695;49.444;11.054;2023-07-29T13:30:30;26.10;99.90
5346;DHT22;2695;49.444;11.054;2023-07-29T13:32:58;26.10;99.90
5346;DHT22;2695;49.444;11.054;2023-07-29T13:35:27;26.20;99.90
5346;DHT22;2695;49.444;11.054;2023-07-29T13:37:55;26.30;99.90
5346;DHT22;2695;49.444;11.054;2023-07-29T13:40:23;26.40;99.90
5346;DHT22;2695;49.444;11.054;2023-07-29T13:42:51;26.30;99.90
5346;DHT22;2695;49.444;11.054;2023-07-29T13:45:19;26.30;99.90
5346;DHT22;2695;49.444;11.054;2023-07-29T13:47:49;26.20;99.90
5346;DHT22;2695;49.444;11.054;2023-07-29T13:50:17;26.10;99.90
5346;DHT22;2695;49.444;11.054;2023-07-29T13:52:45;26.00;99.90
5346;DHT22;2695;49.444;11.054;2023-07-29T13:55:13;26.00;99.90
5346;DHT22;2695;49.444;11.054;2023-07-29T13:57:41;25.80;99.90
5346;DHT22;2695;49.444;11.054;2023-07-29T14:00:10;25.80;99.90
5346;DHT22;2695;49.444;11.054;2023-07-29T14:02:38;25.90;99.90
5346;DHT22;2695;49.444;11.054;2023-07-29T14:05:08;26.00;99.90
5346;DHT22;2695;49.444;11.054;2023-07-29T14:07:38;26.30;99.90
5346;DHT22;2695;49.444;11.054;2023-07-29T14:10:07;26.40;99.90
5346;DHT22;2695;49.444;11.054;2023-07-29T14:12:35;26.60;99.90
5346;DHT22;2695;49.444;11.054;2023-07-29T14:15:04;26.60;99.90
5346;DHT22;2695;49.444;11.054;2023-07-29T14:17:33;26.60;99.90
5346;DHT22;2695;49.444;11.054;2023-07-29T14:20:01;26.50;99.90
5346;DHT22;2695;49.444;11.054;2023-07-29T14:22:31;26.50;99.90
5346;DHT22;2695;49.444;11.054;2023-07-29T14:24:59;26.50;99.90
5346;DHT22;2695;49.444;11.054;2023-07-29T14:27:27;26.40;99.90
5346;DHT22;2695;49.444;11.054;2023-07-29T14:29:55;26.40;99.90
5346;DHT22;2695;49.444;11.054;2023-07-29T14:32:23;26.40;99.90
5346;DHT22;2695;49.444;11.054;2023-07-29T14:34:51;26.50;99.90
5346;DHT22;2695;49.444;11.054;2023-07-29T14:37:19;26.40;99.90
5346;DHT22;2695;49.444;11.054;2023-07-29T14:39:49;26.40;99.90
5346;DHT22;2695;49.444;11.054;2023-07-29T14:42:17;26.30;99.90
5346;DHT22;2695;49.444;11.054;2023-07-29T14:44:45;26.40;99.90
5346;DHT22;2695;49.444;11.054;2023-07-29T14:47:13;26.50;99.90
5346;DHT22;2695;49.444;11.054;2023-07-29T14:49:41;26.50;99.90
5346;DHT22;2695;49.444;11.054;2023-07-29T14:52:09;26.40;99.90
5346;DHT22;2695;49.444;11.054;2023-07-29T14:54:37;26.50;99.90
5346;DHT22;2695;49.444;11.054;2023-07-29T14:57:07;26.50;99.90
5346;DHT22;2695;49.444;11.054;2023-07-29T14:59:35;26.40;99.90
5346;DHT22;2695;49.444;11.054;2023-07-29T15:02:04;26.40;99.90
5346;DHT22;2695;49.444;11.054;2023-07-29T15:04:32;26.40;99.90
5346;DHT22;2695;49.444;11.054;2023-07-29T15:07:00;26.30;99.90
5346;DHT22;2695;49.444;11.054;2023-07-29T15:09:28;26.10;99.90
5346;DHT22;2695;49.444;11.054;2023-07-29T15:11:56;26.00;99.90
5346;DHT22;2695;49.444;11.054;2023-07-29T15:14:26;26.00;99.90
5346;DHT22;2695;49.444;11.054;2023-07-29T15:16:54;26.00;99.90
5346;DHT22;2695;49.444;11.054;2023-07-29T15:19:22;25.90;99.90
5346;DHT22;2695;49.444;11.054;2023-07-29T15:21:51;25.80;99.90
5346;DHT22;2695;49.444;11.054;2023-07-29T15:24:19;25.60;99.90
5346;DHT22;2695;49.444;11.054;2023-07-29T15:26:47;25.50;99.90
5346;DHT22;2695;49.444;11.054;2023-07-29T15:29:15;25.40;99.90
5346;DHT22;2695;49.444;11.054;2023-07-29T15:31:45;25.40;99.90
5346;DHT22;2695;49.444;11.054;2023-07-29T15:34:13;25.40;99.90
5346;DHT22;2695;49.444;11.054;2023-07-29T15:36:42;25.40;99.90
5346;DHT22;2695;49.444;11.054;2023-07-29T15:39:10;25.40;99.90
5346;DHT22;2695;49.444;11.054;2023-07-29T15:41:38;25.40;99.90
5346;DHT22;2695;49.444;11.054;2023-07-29T15:44:06;25.40;99.90
5346;DHT22;2695;49.444;11.054;2023-07-29T15:46:34;25.40;99.90
5346;DHT22;2695;49.444;11.054;2023-07-29T15:49:04;25.40;99.90
5346;DHT22;2695;49.444;11.054;2023-07-29T15:51:32;25.40;99.90
5346;DHT22;2695;49.444;11.054;2023-07-29T15:54:00;25.30;99.90
5346;DHT22;2695;49.444;11.054;2023-07-29T15:56:28;25.30;99.90
5346;DHT22;2695;49.444;11.054;2023-07-29T15:58:57;25.20;99.90
5346;DHT22;2695;49.444;11.054;2023-07-29T16:01:25;25.20;99.90